createdAt,value
2022-09-12T00:00:35.587Z,99397
2022-09-12T00:01:35.744Z,99397
2022-09-12T00:02:35.726Z,99397
2022-09-12T00:03:36.061Z,99394
2022-09-12T00:04:35.571Z,99396
2022-09-12T00:05:41.124Z,99392
2022-09-12T00:06:37.812Z,99389
2022-09-12T00:07:35.912Z,99387
2022-09-12T00:08:35.701Z,99387
2022-09-12T00:10:39.822Z,99382
2022-09-12T00:11:38.007Z,99381
2022-09-12T00:12:35.694Z,99372
2022-09-12T00:13:40.838Z,99379
2022-09-12T00:14:35.574Z,99375
2022-09-12T00:15:40.302Z,99372
2022-09-12T00:16:36.817Z,99369
2022-09-12T00:17:36.650Z,99370
2022-09-12T00:18:35.699Z,99370
2022-09-12T00:19:35.804Z,99368
2022-09-12T00:20:35.861Z,99369
2022-09-12T00:21:36.942Z,99366
2022-09-12T00:22:36.365Z,99364
2022-09-12T00:24:35.697Z,99362
2022-09-12T00:25:35.567Z,99362
2022-09-12T00:26:35.619Z,99360
2022-09-12T00:27:35.627Z,99361
2022-09-12T00:28:38.147Z,99361
2022-09-12T00:29:35.654Z,99359
2022-09-12T00:30:35.620Z,99356
2022-09-12T00:31:35.862Z,99355
2022-09-12T00:32:35.537Z,99356
2022-09-12T00:33:36.462Z,99355
2022-09-12T00:34:35.765Z,99348
2022-09-12T00:35:35.638Z,99348
2022-09-12T00:36:35.853Z,99348
2022-09-12T00:37:36.718Z,99344
2022-09-12T00:38:42.197Z,99342
2022-09-12T00:39:35.555Z,99346
2022-09-12T00:41:39.038Z,99343
2022-09-12T00:42:35.571Z,99340
2022-09-12T00:43:42.833Z,99332
2022-09-12T00:44:45.993Z,99337
2022-09-12T00:45:35.707Z,99331
2022-09-12T00:46:40.268Z,99337
2022-09-12T00:47:38.393Z,99332
2022-09-12T00:48:42.593Z,99335
2022-09-12T00:49:37.537Z,99330
2022-09-12T00:50:35.686Z,99333
2022-09-12T00:51:39.203Z,99331
2022-09-12T00:52:41.169Z,99336
2022-09-12T00:53:35.879Z,99339
2022-09-12T00:54:47.365Z,99338
2022-09-12T00:55:41.534Z,99340
2022-09-12T00:56:37.444Z,99336
2022-09-12T00:57:42.216Z,99329
2022-09-12T00:58:42.129Z,99330
2022-09-12T00:59:42.692Z,99329
2022-09-12T01:00:35.639Z,99329
2022-09-12T01:01:36.140Z,99328
2022-09-12T01:02:35.830Z,99324
2022-09-12T01:03:35.597Z,99324
2022-09-12T01:04:39.047Z,99325
2022-09-12T01:06:39.511Z,99323
2022-09-12T01:07:40.287Z,99321
2022-09-12T01:08:37.973Z,99319
2022-09-12T01:09:37.481Z,99315
2022-09-12T01:10:38.798Z,99313
2022-09-12T01:11:39.589Z,99312
2022-09-12T01:12:38.042Z,99313
2022-09-12T01:13:37.054Z,99307
2022-09-12T01:14:36.165Z,99307
2022-09-12T01:15:37.693Z,99303
2022-09-12T01:16:38.326Z,99302
2022-09-12T01:17:48.754Z,99299
2022-09-12T01:19:54.367Z,99300
2022-09-12T01:20:44.244Z,99303
2022-09-12T01:21:49.322Z,99299
2022-09-12T01:22:53.663Z,99297
2022-09-12T01:23:45.262Z,99297
2022-09-12T01:24:52.536Z,99299
2022-09-12T01:25:52.574Z,99295
2022-09-12T01:26:53.678Z,99294
2022-09-12T01:27:45.290Z,99293
2022-09-12T01:28:44.353Z,99293
2022-09-12T01:29:48.202Z,99292
2022-09-12T01:30:45.983Z,99294
2022-09-12T01:31:45.103Z,99293
2022-09-12T01:33:43.870Z,99291
2022-09-12T01:34:47.463Z,99290
2022-09-12T01:37:49.959Z,99291
2022-09-12T01:38:43.654Z,99289
2022-09-12T01:39:46.963Z,99291
2022-09-12T01:40:46.121Z,99287
2022-09-12T01:41:53.211Z,99288
2022-09-12T01:43:39.799Z,99286
2022-09-12T01:44:43.080Z,99286
2022-09-12T01:45:47.421Z,99286
2022-09-12T01:46:49.401Z,99285
2022-09-12T01:47:42.777Z,99287
2022-09-12T01:48:41.477Z,99286
2022-09-12T01:49:47.494Z,99284
2022-09-12T01:50:44.477Z,99288
2022-09-12T01:51:40.550Z,99283
2022-09-12T01:52:45.310Z,99285
2022-09-12T01:53:47.462Z,99288
2022-09-12T01:54:43.132Z,99287
2022-09-12T01:55:42.415Z,99288
2022-09-12T01:56:39.157Z,99288
2022-09-12T01:57:42.705Z,99289
2022-09-12T01:58:43.902Z,99289
2022-09-12T01:59:41.543Z,99290
2022-09-12T02:00:43.561Z,99291
2022-09-12T02:01:42.225Z,99294
2022-09-12T02:02:40.868Z,99296
2022-09-12T02:03:45.107Z,99298
2022-09-12T02:04:48.924Z,99298
2022-09-12T02:05:39.826Z,99297
2022-09-12T02:06:47.545Z,99299
2022-09-12T02:07:45.566Z,99308
2022-09-12T02:08:43.325Z,99310
2022-09-12T02:09:38.180Z,99312
2022-09-12T02:10:44.198Z,99310
2022-09-12T02:11:38.071Z,99316
2022-09-12T02:12:47.055Z,99317
2022-09-12T02:13:40.725Z,99321
2022-09-12T02:14:42.068Z,99327
2022-09-12T02:15:40.822Z,99325
2022-09-12T02:16:42.874Z,99325
2022-09-12T02:17:40.101Z,99324
2022-09-12T02:18:38.597Z,99325
2022-09-12T02:19:42.465Z,99330
2022-09-12T02:20:48.545Z,99330
2022-09-12T02:21:38.456Z,99331
2022-09-12T02:22:37.662Z,99328
2022-09-12T02:23:40.828Z,99332
2022-09-12T02:24:40.900Z,99335
2022-09-12T02:25:39.893Z,99330
2022-09-12T02:26:42.761Z,99330
2022-09-12T02:27:39.446Z,99334
2022-09-12T02:28:41.311Z,99333
2022-09-12T02:29:35.589Z,99335
2022-09-12T02:30:43.816Z,99337
2022-09-12T02:31:48.935Z,99331
2022-09-12T02:32:47.317Z,99334
2022-09-12T02:33:50.064Z,99335
2022-09-12T02:34:43.241Z,99336
2022-09-12T02:35:47.039Z,99328
2022-09-12T02:36:47.764Z,99337
2022-09-12T02:37:48.365Z,99336
2022-09-12T02:38:44.770Z,99337
2022-09-12T02:39:36.047Z,99340
2022-09-12T02:40:38.083Z,99337
2022-09-12T02:41:35.602Z,99339
2022-09-12T02:42:36.904Z,99337
2022-09-12T02:43:38.002Z,99341
2022-09-12T02:44:37.014Z,99342
2022-09-12T02:45:37.310Z,99343
2022-09-12T02:46:42.371Z,99340
2022-09-12T02:48:41.633Z,99345
2022-09-12T02:49:35.517Z,99341
2022-09-12T02:50:36.322Z,99340
2022-09-12T02:51:35.688Z,99342
2022-09-12T02:53:37.604Z,99337
2022-09-12T02:55:37.361Z,99343
2022-09-12T02:56:35.622Z,99336
2022-09-12T02:58:35.688Z,99345
2022-09-12T02:59:35.560Z,99349
2022-09-12T03:00:46.772Z,99346
2022-09-12T03:02:44.981Z,99353
2022-09-12T03:03:54.194Z,99350
2022-09-12T03:04:47.596Z,99350
2022-09-12T03:05:46.699Z,99345
2022-09-12T03:06:39.222Z,99349
2022-09-12T03:07:50.915Z,99349
2022-09-12T03:08:47.185Z,99353
2022-09-12T03:09:48.722Z,99355
2022-09-12T03:10:49.342Z,99351
2022-09-12T03:11:44.044Z,99353
2022-09-12T03:12:50.163Z,99351
2022-09-12T03:13:47.080Z,99354
2022-09-12T03:14:53.579Z,99355
2022-09-12T03:18:51.295Z,99362
2022-09-12T03:19:39.062Z,99356
2022-09-12T03:20:45.803Z,99357
2022-09-12T03:21:51.904Z,99354
2022-09-12T03:22:44.352Z,99351
2022-09-12T03:23:44.057Z,99351
2022-09-12T03:24:45.677Z,99350
2022-09-12T03:25:42.599Z,99352
2022-09-12T03:26:38.059Z,99352
2022-09-12T03:28:37.043Z,99352
2022-09-12T03:30:48.097Z,99350
2022-09-12T03:33:35.765Z,99340
2022-09-12T03:34:35.610Z,99348
2022-09-12T03:35:35.457Z,99345
2022-09-12T03:36:35.516Z,99342
2022-09-12T03:37:36.636Z,99350
2022-09-12T03:38:35.543Z,99351
2022-09-12T03:42:35.895Z,99350
2022-09-12T03:46:36.102Z,99352
2022-09-12T03:48:35.724Z,99353
2022-09-12T03:49:35.418Z,99356
2022-09-12T03:50:35.579Z,99353
2022-09-12T03:51:35.492Z,99353
2022-09-12T03:52:35.555Z,99352
2022-09-12T03:53:35.882Z,99353
2022-09-12T03:54:35.479Z,99354
2022-09-12T03:55:36.382Z,99359
2022-09-12T03:56:36.205Z,99357
2022-09-12T03:58:36.469Z,99354
2022-09-12T03:59:35.497Z,99355
2022-09-12T04:00:35.436Z,99360
2022-09-12T04:01:35.619Z,99356
2022-09-12T04:02:36.107Z,99358
2022-09-12T04:03:35.434Z,99361
2022-09-12T04:04:35.421Z,99355
2022-09-12T04:05:36.268Z,99355
2022-09-12T04:06:35.782Z,99354
2022-09-12T04:07:35.875Z,99354
2022-09-12T04:08:36.325Z,99354
2022-09-12T04:09:35.481Z,99356
2022-09-12T04:10:35.465Z,99355
2022-09-12T04:11:36.051Z,99352
2022-09-12T04:12:35.851Z,99353
2022-09-12T04:13:36.603Z,99352
2022-09-12T04:14:35.517Z,99353
2022-09-12T04:15:35.413Z,99351
2022-09-12T04:16:35.714Z,99352
2022-09-12T04:17:36.008Z,99351
2022-09-12T04:19:39.789Z,99350
2022-09-12T04:20:36.765Z,99348
2022-09-12T04:21:35.583Z,99350
2022-09-12T04:22:35.510Z,99348
2022-09-12T04:23:35.975Z,99351
2022-09-12T04:24:35.452Z,99350
2022-09-12T04:25:35.395Z,99350
2022-09-12T04:26:35.525Z,99349
2022-09-12T04:27:35.826Z,99352
2022-09-12T04:28:37.347Z,99353
2022-09-12T04:29:35.870Z,99351
2022-09-12T04:30:35.940Z,99360
2022-09-12T04:31:35.457Z,99352
2022-09-12T04:32:35.403Z,99352
2022-09-12T04:33:36.258Z,99350
2022-09-12T04:34:35.461Z,99350
2022-09-12T04:35:36.836Z,99350
2022-09-12T04:36:35.967Z,99350
2022-09-12T04:37:35.531Z,99347
2022-09-12T04:38:36.685Z,99348
2022-09-12T04:39:35.390Z,99349
2022-09-12T04:40:35.605Z,99350
2022-09-12T04:42:35.418Z,99349
2022-09-12T04:43:35.400Z,99348
2022-09-12T04:46:38.971Z,99354
2022-09-12T04:47:35.601Z,99354
2022-09-12T04:48:35.664Z,99352
2022-09-12T04:49:35.567Z,99352
2022-09-12T04:50:35.403Z,99349
2022-09-12T04:51:37.276Z,99350
2022-09-12T04:52:35.439Z,99351
2022-09-12T04:53:37.126Z,99352
2022-09-12T04:55:36.384Z,99351
2022-09-12T04:56:39.477Z,99355
2022-09-12T04:57:37.261Z,99354
2022-09-12T04:58:36.115Z,99351
2022-09-12T04:59:35.462Z,99356
2022-09-12T05:00:35.406Z,99356
2022-09-12T05:02:35.740Z,99352
2022-09-12T05:03:36.092Z,99356
2022-09-12T05:04:36.133Z,99353
2022-09-12T05:05:36.870Z,99359
2022-09-12T05:06:37.595Z,99357
2022-09-12T05:07:35.942Z,99356
2022-09-12T05:08:36.584Z,99356
2022-09-12T05:09:35.381Z,99353
2022-09-12T05:10:35.717Z,99351
2022-09-12T05:12:03.212Z,99351
2022-09-12T05:12:36.040Z,99350
2022-09-12T05:13:37.633Z,99354
2022-09-12T05:14:36.536Z,99353
2022-09-12T05:15:35.777Z,99358
2022-09-12T05:16:35.452Z,99362
2022-09-12T05:17:36.267Z,99362
2022-09-12T05:18:37.770Z,99364
2022-09-12T05:19:35.534Z,99359
2022-09-12T05:20:35.571Z,99366
2022-09-12T05:21:35.373Z,99366
2022-09-12T05:22:35.410Z,99364
2022-09-12T05:23:36.082Z,99367
2022-09-12T05:24:35.441Z,99368
2022-09-12T05:25:35.351Z,99368
2022-09-12T05:28:37.597Z,99367
2022-09-12T05:31:35.761Z,99365
2022-09-12T05:33:37.075Z,99363
2022-09-12T05:37:35.385Z,99367
2022-09-12T05:38:36.396Z,99367
2022-09-12T05:40:35.934Z,99365
2022-09-12T05:42:37.048Z,99370
2022-09-12T05:43:36.451Z,99370
2022-09-12T05:44:35.357Z,99371
2022-09-12T05:45:35.446Z,99372
2022-09-12T05:46:39.491Z,99370
2022-09-12T05:48:37.302Z,99372
2022-09-12T05:49:36.528Z,99377
2022-09-12T05:50:35.363Z,99376
2022-09-12T05:51:39.459Z,99375
2022-09-12T05:53:35.880Z,99376
2022-09-12T05:54:35.422Z,99379
2022-09-12T05:55:35.399Z,99385
2022-09-12T05:56:39.901Z,99383
2022-09-12T05:57:36.021Z,99381
2022-09-12T05:58:36.821Z,99378
2022-09-12T05:59:35.461Z,99379
2022-09-12T06:00:35.372Z,99377
2022-09-12T06:01:36.668Z,99374
2022-09-12T06:02:36.289Z,99373
2022-09-12T06:03:36.404Z,99378
2022-09-12T06:04:35.393Z,99376
2022-09-12T06:05:36.359Z,99373
2022-09-12T06:06:41.772Z,99373
2022-09-12T06:07:36.286Z,99373
2022-09-12T06:08:36.661Z,99370
2022-09-12T06:09:35.391Z,99375
2022-09-12T06:10:35.539Z,99378
2022-09-12T06:11:37.489Z,99377
2022-09-12T06:12:35.328Z,99378
2022-09-12T06:16:37.395Z,99381
2022-09-12T06:17:35.405Z,99379
2022-09-12T06:18:36.279Z,99380
2022-09-12T06:19:37.912Z,99377
2022-09-12T06:20:37.239Z,99378
2022-09-12T06:21:35.801Z,99373
2022-09-12T06:22:35.523Z,99377
2022-09-12T06:23:35.793Z,99377
2022-09-12T06:24:35.370Z,99376
2022-09-12T06:25:35.358Z,99375
2022-09-12T06:26:35.740Z,99378
2022-09-12T06:27:35.310Z,99375
2022-09-12T06:28:38.619Z,99372
2022-09-12T06:29:35.292Z,99378
2022-09-12T06:30:35.379Z,99384
2022-09-12T06:31:38.071Z,99385
2022-09-12T06:32:35.749Z,99386
2022-09-12T06:33:36.525Z,99387
2022-09-12T06:34:36.701Z,99387
2022-09-12T06:35:38.444Z,99384
2022-09-12T06:36:38.784Z,99386
2022-09-12T06:37:35.327Z,99387
2022-09-12T06:38:35.693Z,99388
2022-09-12T06:39:35.951Z,99386
2022-09-12T06:41:39.383Z,99386
2022-09-12T06:44:35.330Z,99385
2022-09-12T06:45:35.367Z,99384
2022-09-12T06:46:35.385Z,99387
2022-09-12T06:50:35.730Z,99391
2022-09-12T06:54:35.360Z,99393
2022-09-12T06:56:35.385Z,99389
2022-09-12T06:58:36.227Z,99391
2022-09-12T06:59:35.286Z,99393
2022-09-12T07:00:35.362Z,99390
2022-09-12T07:01:35.365Z,99394
2022-09-12T07:02:35.373Z,99394
2022-09-12T07:06:40.039Z,99395
2022-09-12T07:08:37.274Z,99400
2022-09-12T07:10:35.307Z,99399
2022-09-12T07:13:35.468Z,99404
2022-09-12T07:15:36.893Z,99409
2022-09-12T07:16:37.172Z,99405
2022-09-12T07:19:35.533Z,99408
2022-09-12T07:21:40.638Z,99409
2022-09-12T07:23:35.699Z,99414
2022-09-12T07:26:35.880Z,99414
2022-09-12T07:27:35.666Z,99417
2022-09-12T07:28:36.177Z,99413
2022-09-12T07:29:37.355Z,99417
2022-09-12T07:31:35.306Z,99419
2022-09-12T07:32:35.381Z,99421
2022-09-12T07:33:36.307Z,99426
2022-09-12T07:34:35.966Z,99424
2022-09-12T07:35:35.501Z,99424
2022-09-12T07:36:35.756Z,99423
2022-09-12T07:37:35.317Z,99427
2022-09-12T07:38:35.763Z,99425
2022-09-12T07:39:35.357Z,99427
2022-09-12T07:40:35.625Z,99430
2022-09-12T07:41:35.366Z,99431
2022-09-12T07:42:35.998Z,99427
2022-09-12T07:43:35.751Z,99429
2022-09-12T07:44:35.424Z,99425
2022-09-12T07:48:35.738Z,99424
2022-09-12T07:52:35.286Z,99427
2022-09-12T07:55:35.355Z,99420
2022-09-12T07:56:38.871Z,99421
2022-09-12T07:58:36.829Z,99426
2022-09-12T07:59:51.978Z,99418
2022-09-12T08:01:35.490Z,99420
2022-09-12T08:03:36.118Z,99415
2022-09-12T08:04:36.585Z,99414
2022-09-12T08:05:35.395Z,99410
2022-09-12T08:06:37.107Z,99414
2022-09-12T08:07:35.384Z,99410
2022-09-12T08:08:35.558Z,99416
2022-09-12T08:09:35.487Z,99413
2022-09-12T08:10:35.535Z,99411
2022-09-12T08:11:35.828Z,99405
2022-09-12T08:12:35.320Z,99407
2022-09-12T08:13:36.802Z,99409
2022-09-12T08:14:35.223Z,99408
2022-09-12T08:15:36.547Z,99411
2022-09-12T08:16:35.835Z,99409
2022-09-12T08:17:35.246Z,99413
2022-09-12T08:18:36.666Z,99411
2022-09-12T08:19:38.999Z,99414
2022-09-12T08:20:35.309Z,99415
2022-09-12T08:21:35.397Z,99413
2022-09-12T08:22:35.303Z,99416
2022-09-12T08:23:35.932Z,99418
2022-09-12T08:24:35.327Z,99417
2022-09-12T08:25:35.356Z,99417
2022-09-12T08:26:36.183Z,99416
2022-09-12T08:27:35.418Z,99413
2022-09-12T08:28:36.685Z,99412
2022-09-12T08:31:38.006Z,99414
2022-09-12T08:32:36.345Z,99412
2022-09-12T08:35:35.288Z,99410
2022-09-12T08:37:35.305Z,99406
2022-09-12T08:38:36.386Z,99409
2022-09-12T08:39:35.270Z,99407
2022-09-12T08:41:40.832Z,99408
2022-09-12T08:44:53.831Z,99407
2022-09-12T08:48:36.228Z,99404
2022-09-12T08:51:36.881Z,99411
2022-09-12T08:52:37.659Z,99412
2022-09-12T08:57:35.329Z,99412
2022-09-12T08:58:43.471Z,99412
2022-09-12T08:59:39.473Z,99410
2022-09-12T09:07:51.737Z,99407
2022-09-12T09:12:48.441Z,99411
2022-09-12T09:15:50.987Z,99411
2022-09-12T09:19:41.056Z,99403
2022-09-12T09:20:47.567Z,99404
2022-09-12T09:23:41.669Z,99407
2022-09-12T09:24:40.552Z,99405
2022-09-12T09:25:45.508Z,99405
2022-09-12T09:26:40.571Z,99402
2022-09-12T09:27:44.207Z,99402
2022-09-12T09:28:41.981Z,99403
2022-09-12T09:29:42.067Z,99401
2022-09-12T09:31:39.221Z,99396
2022-09-12T09:32:41.562Z,99400
2022-09-12T09:33:36.211Z,99399
2022-09-12T09:34:36.193Z,99398
2022-09-12T09:35:46.125Z,99399
2022-09-12T09:36:41.049Z,99401
2022-09-12T09:37:43.116Z,99397
2022-09-12T09:39:50.816Z,99399
2022-09-12T09:40:47.090Z,99402
2022-09-12T09:42:39.046Z,99402
2022-09-12T09:43:35.309Z,99399
2022-09-12T09:47:35.245Z,99403
2022-09-12T09:48:38.164Z,99405
2022-09-12T09:50:35.439Z,99403
2022-09-12T09:51:37.477Z,99408
2022-09-12T09:52:36.795Z,99405
2022-09-12T09:54:37.840Z,99403
2022-09-12T09:55:41.615Z,99405
2022-09-12T09:57:42.245Z,99404
2022-09-12T09:58:36.848Z,99402
2022-09-12T09:59:35.438Z,99406
2022-09-12T10:03:40.185Z,99402
2022-09-12T10:04:41.613Z,99397
2022-09-12T10:05:46.113Z,99404
2022-09-12T10:07:35.334Z,99401
2022-09-12T10:08:37.819Z,99400
2022-09-12T10:09:37.191Z,99408
2022-09-12T10:10:35.214Z,99406
2022-09-12T10:11:35.247Z,99408
2022-09-12T10:12:35.244Z,99409
2022-09-12T10:13:43.865Z,99413
2022-09-12T10:15:35.341Z,99412
2022-09-12T10:16:46.031Z,99411
2022-09-12T10:17:44.649Z,99411
2022-09-12T10:18:39.454Z,99408
2022-09-12T10:19:38.596Z,99407
2022-09-12T10:20:42.740Z,99410
2022-09-12T10:21:41.266Z,99415
2022-09-12T10:23:37.876Z,99408
2022-09-12T10:25:35.218Z,99408
2022-09-12T10:27:36.382Z,99408
2022-09-12T10:29:44.178Z,99409
2022-09-12T10:30:35.261Z,99405
2022-09-12T10:31:54.173Z,99406
2022-09-12T10:32:40.100Z,99400
2022-09-12T10:33:43.374Z,99401
2022-09-12T10:34:42.746Z,99399
2022-09-12T10:35:46.406Z,99405
2022-09-12T10:37:37.738Z,99400
2022-09-12T10:38:35.200Z,99404
2022-09-12T10:39:36.389Z,99404
2022-09-12T10:40:38.082Z,99402
2022-09-12T10:41:40.032Z,99404
2022-09-12T10:43:38.301Z,99402
2022-09-12T10:45:37.650Z,99406
2022-09-12T10:46:35.109Z,99406
2022-09-12T10:47:35.199Z,99406
2022-09-12T10:48:36.375Z,99406
2022-09-12T10:50:38.225Z,99409
2022-09-12T10:52:35.154Z,99409
2022-09-12T10:53:42.493Z,99412
2022-09-12T10:56:47.450Z,99410
2022-09-12T10:58:50.118Z,99407
2022-09-12T11:01:48.760Z,99407
2022-09-12T11:03:43.847Z,99406
2022-09-12T11:04:53.234Z,99408
2022-09-12T11:06:44.037Z,99410
2022-09-12T11:09:42.635Z,99412
2022-09-12T11:11:51.805Z,99408
2022-09-12T11:13:43.861Z,99420
2022-09-12T11:14:49.457Z,99416
2022-09-12T11:19:52.111Z,99411
2022-09-12T11:20:43.865Z,99409
2022-09-12T11:22:53.233Z,99409
2022-09-12T11:23:50.357Z,99408
2022-09-12T11:24:47.849Z,99404
2022-09-12T11:25:46.154Z,99402
2022-09-12T11:28:47.289Z,99401
2022-09-12T11:31:47.830Z,99396
2022-09-12T11:33:45.457Z,99401
2022-09-12T11:34:50.492Z,99399
2022-09-12T11:35:41.602Z,99399
2022-09-12T11:36:40.634Z,99402
2022-09-12T11:37:43.977Z,99403
2022-09-12T11:38:43.328Z,99401
2022-09-12T11:39:40.362Z,99404
2022-09-12T11:40:44.450Z,99402
2022-09-12T11:41:40.359Z,99406
2022-09-12T11:42:40.063Z,99408
2022-09-12T11:43:39.932Z,99408
2022-09-12T11:44:41.089Z,99412
2022-09-12T11:45:43.735Z,99421
2022-09-12T11:48:49.252Z,99420
2022-09-12T11:49:41.847Z,99427
2022-09-12T11:50:35.226Z,99425
2022-09-12T11:51:43.552Z,99425
2022-09-12T11:52:40.073Z,99424
2022-09-12T11:53:41.910Z,99426
2022-09-12T11:54:40.514Z,99424
2022-09-12T11:55:51.041Z,99425
2022-09-12T11:56:39.907Z,99428
2022-09-12T11:57:44.127Z,99427
2022-09-12T11:58:36.790Z,99424
2022-09-12T11:59:45.267Z,99429
2022-09-12T12:00:41.892Z,99424
2022-09-12T12:01:45.046Z,99417
2022-09-12T12:03:44.243Z,99420
2022-09-12T12:04:43.248Z,99427
2022-09-12T12:05:41.118Z,99429
2022-09-12T12:06:47.644Z,99424
2022-09-12T12:08:40.844Z,99425
2022-09-12T12:10:39.156Z,99429
2022-09-12T12:11:39.999Z,99430
2022-09-12T12:12:35.254Z,99428
2022-09-12T12:15:37.784Z,99418
2022-09-12T12:18:38.989Z,99427
2022-09-12T12:20:35.939Z,99429
2022-09-12T12:21:44.069Z,99432
2022-09-12T12:22:35.172Z,99431
2022-09-12T12:23:36.695Z,99427
2022-09-12T12:24:35.420Z,99429
2022-09-12T12:25:53.308Z,99423
2022-09-12T12:26:53.218Z,99430
2022-09-12T12:27:46.889Z,99431
2022-09-12T12:28:50.511Z,99431
2022-09-12T12:29:44.099Z,99432
2022-09-12T12:30:53.199Z,99441
2022-09-12T12:31:53.167Z,99444
2022-09-12T12:32:35.136Z,99445
2022-09-12T12:34:36.325Z,99442
2022-09-12T12:35:41.260Z,99449
2022-09-12T12:36:40.485Z,99450
2022-09-12T12:37:44.062Z,99456
2022-09-12T12:38:37.320Z,99453
2022-09-12T12:39:44.023Z,99454
2022-09-12T12:40:35.057Z,99459
2022-09-12T12:41:44.334Z,99455
2022-09-12T12:42:44.781Z,99456
2022-09-12T12:43:35.054Z,99457
2022-09-12T12:44:44.802Z,99451
2022-09-12T12:45:47.004Z,99451
2022-09-12T12:46:39.606Z,99448
2022-09-12T12:47:42.733Z,99450
2022-09-12T12:48:45.824Z,99448
2022-09-12T12:49:35.128Z,99447
2022-09-12T12:50:35.269Z,99448
2022-09-12T12:52:53.947Z,99446
2022-09-12T12:53:36.215Z,99448
2022-09-12T12:55:46.341Z,99444
2022-09-12T12:56:40.070Z,99448
2022-09-12T12:57:50.674Z,99446
2022-09-12T12:58:39.778Z,99448
2022-09-12T13:01:41.220Z,99450
2022-09-12T13:02:40.028Z,99447
2022-09-12T13:03:36.639Z,99452
2022-09-12T13:04:35.538Z,99456
2022-09-12T13:05:50.432Z,99465
2022-09-12T13:06:36.373Z,99467
2022-09-12T13:07:38.585Z,99472
2022-09-12T13:08:39.643Z,99475
2022-09-12T13:09:44.324Z,99476
2022-09-12T13:10:35.957Z,99479
2022-09-12T13:11:38.829Z,99480
2022-09-12T13:12:44.508Z,99481
2022-09-12T13:13:37.584Z,99482
2022-09-12T13:14:37.781Z,99483
2022-09-12T13:15:43.933Z,99482
2022-09-12T13:16:39.130Z,99480
2022-09-12T13:17:44.189Z,99483
2022-09-12T13:18:42.548Z,99487
2022-09-12T13:19:38.398Z,99488
2022-09-12T13:20:44.914Z,99490
2022-09-12T13:21:35.324Z,99487
2022-09-12T13:23:35.562Z,99482
2022-09-12T13:24:44.695Z,99486
2022-09-12T13:26:44.138Z,99496
2022-09-12T13:28:35.542Z,99496
2022-09-12T13:30:37.952Z,99501
2022-09-12T13:32:36.114Z,99492
2022-09-12T13:33:42.947Z,99514
2022-09-12T13:36:47.710Z,99517
2022-09-12T13:37:50.881Z,99519
2022-09-12T13:38:48.692Z,99518
2022-09-12T13:39:46.416Z,99519
2022-09-12T13:40:50.385Z,99521
2022-09-12T13:41:51.725Z,99520
2022-09-12T13:42:41.199Z,99510
2022-09-12T13:43:41.906Z,99506
2022-09-12T13:44:49.739Z,99506
2022-09-12T13:45:39.252Z,99499
2022-09-12T13:46:35.597Z,99500
2022-09-12T13:47:38.679Z,99504
2022-09-12T13:48:35.564Z,99505
2022-09-12T13:49:37.332Z,99508
2022-09-12T13:50:43.235Z,99512
2022-09-12T13:51:35.151Z,99508
2022-09-12T13:52:38.446Z,99513
2022-09-12T13:53:45.245Z,99507
2022-09-12T13:54:39.079Z,99510
2022-09-12T13:55:38.278Z,99507
2022-09-12T13:56:35.098Z,99513
2022-09-12T13:57:39.087Z,99509
2022-09-12T13:59:40.594Z,99509
2022-09-12T14:00:37.406Z,99508
2022-09-12T14:01:44.323Z,99505
2022-09-12T14:02:37.530Z,99510
2022-09-12T14:03:58.543Z,99508
2022-09-12T14:04:49.084Z,99506
2022-09-12T14:05:38.797Z,99511
2022-09-12T14:06:45.321Z,99511
2022-09-12T14:07:41.421Z,99515
2022-09-12T14:08:35.074Z,99519
2022-09-12T14:09:40.612Z,99521
2022-09-12T14:10:39.573Z,99526
2022-09-12T14:11:38.489Z,99534
2022-09-12T14:12:44.087Z,99534
2022-09-12T14:13:35.940Z,99530
2022-09-12T14:14:42.287Z,99528
2022-09-12T14:15:37.948Z,99521
2022-09-12T14:16:41.055Z,99519
2022-09-12T14:17:37.509Z,99519
2022-09-12T14:18:36.630Z,99511
2022-09-12T14:19:35.747Z,99511
2022-09-12T14:20:38.756Z,99514
2022-09-12T14:21:37.397Z,99513
2022-09-12T14:22:39.144Z,99511
2022-09-12T14:23:36.677Z,99512
2022-09-12T14:24:35.039Z,99512
2022-09-12T14:25:41.625Z,99508
2022-09-12T14:26:37.703Z,99512
2022-09-12T14:27:45.898Z,99507
2022-09-12T14:28:36.169Z,99509
2022-09-12T14:29:35.325Z,99518
2022-09-12T14:32:35.666Z,99521
2022-09-12T14:33:45.494Z,99520
2022-09-12T14:34:34.982Z,99502
2022-09-12T14:35:35.071Z,99508
2022-09-12T14:36:41.256Z,99501
2022-09-12T14:37:35.657Z,99498
2022-09-12T14:38:41.954Z,99498
2022-09-12T14:39:41.294Z,99494
2022-09-12T14:40:43.884Z,99494
2022-09-12T14:41:39.441Z,99493
2022-09-12T14:42:35.555Z,99492
2022-09-12T14:43:39.184Z,99491
2022-09-12T14:44:36.513Z,99493
2022-09-12T14:45:35.016Z,99484
2022-09-12T14:46:37.962Z,99487
2022-09-12T14:47:41.468Z,99487
2022-09-12T14:48:38.705Z,99485
2022-09-12T14:49:37.401Z,99482
2022-09-12T14:50:37.398Z,99479
2022-09-12T14:51:39.225Z,99481
2022-09-12T14:52:35.615Z,99474
2022-09-12T14:53:37.122Z,99471
2022-09-12T14:54:40.423Z,99465
2022-09-12T14:55:42.752Z,99463
2022-09-12T14:56:44.680Z,99464
2022-09-12T14:57:40.660Z,99462
2022-09-12T14:58:35.534Z,99463
2022-09-12T14:59:40.154Z,99460
2022-09-12T15:01:35.043Z,99461
2022-09-12T15:02:35.204Z,99460
2022-09-12T15:03:49.520Z,99460
2022-09-12T15:04:43.897Z,99462
2022-09-12T15:05:44.333Z,99466
2022-09-12T15:06:39.186Z,99466
2022-09-12T15:07:38.699Z,99467
2022-09-12T15:08:35.348Z,99466
2022-09-12T15:09:35.119Z,99467
2022-09-12T15:10:37.881Z,99466
2022-09-12T15:11:35.061Z,99468
2022-09-12T15:12:35.030Z,99466
2022-09-12T15:13:41.469Z,99464
2022-09-12T15:14:34.981Z,99462
2022-09-12T15:15:35.775Z,99459
2022-09-12T15:16:34.930Z,99463
2022-09-12T15:17:34.917Z,99466
2022-09-12T15:18:34.923Z,99466
2022-09-12T15:19:34.960Z,99468
2022-09-12T15:20:38.775Z,99467
2022-09-12T15:21:34.928Z,99465
2022-09-12T15:22:35.774Z,99468
2022-09-12T15:24:34.964Z,99456
2022-09-12T15:28:35.577Z,99458
2022-09-12T15:30:35.005Z,99464
2022-09-12T15:31:35.022Z,99466
2022-09-12T15:32:35.477Z,99466
2022-09-12T15:33:35.174Z,99469
2022-09-12T15:34:34.909Z,99473
2022-09-12T15:36:34.986Z,99477
2022-09-12T15:37:34.917Z,99481
2022-09-12T15:40:34.955Z,99496
2022-09-12T15:44:34.952Z,99506
2022-09-12T15:45:36.070Z,99499
2022-09-12T15:46:35.440Z,99500
2022-09-12T15:47:35.189Z,99507
2022-09-12T15:48:35.010Z,99503
2022-09-12T15:49:35.081Z,99505
2022-09-12T15:50:35.547Z,99505
2022-09-12T15:51:35.052Z,99507
2022-09-12T15:52:34.875Z,99503
2022-09-12T15:53:34.912Z,99507
2022-09-12T15:54:36.402Z,99513
2022-09-12T15:55:35.201Z,99501
2022-09-12T15:56:34.914Z,99507
2022-09-12T15:57:34.909Z,99510
2022-09-12T15:59:35.072Z,99514
2022-09-12T16:00:34.924Z,99516
2022-09-12T16:01:34.915Z,99515
2022-09-12T16:02:35.022Z,99517
2022-09-12T16:04:35.755Z,99505
2022-09-12T16:05:35.622Z,99495
2022-09-12T16:06:37.207Z,99495
2022-09-12T16:07:34.972Z,99484
2022-09-12T16:08:34.887Z,99480
2022-09-12T16:09:34.928Z,99468
2022-09-12T16:10:36.243Z,99465
2022-09-12T16:12:34.930Z,99471
2022-09-12T16:14:34.943Z,99474
2022-09-12T16:15:35.018Z,99479
2022-09-12T16:20:35.996Z,99495
2022-09-12T16:24:34.891Z,99500
2022-09-12T16:28:35.309Z,99488
2022-09-12T16:29:34.910Z,99491